createdAt,value
2022-12-28T00:02:15.063Z,0.70
2022-12-28T00:04:43.912Z,0.60
2022-12-28T00:07:13.406Z,0.50
2022-12-28T00:09:41.561Z,1.30
2022-12-28T00:12:09.791Z,1.10
2022-12-28T00:14:37.933Z,0.82
2022-12-28T00:17:06.054Z,0.60
2022-12-28T00:19:34.216Z,0.70
2022-12-28T00:22:02.322Z,0.75
2022-12-28T00:24:32.144Z,1.20
2022-12-28T00:27:00.262Z,0.70
2022-12-28T00:29:28.356Z,1.00
2022-12-28T00:31:56.521Z,0.95
2022-12-28T00:34:27.186Z,0.57
2022-12-28T00:37:11.034Z,0.77
2022-12-28T00:39:45.975Z,0.77
2022-12-28T00:42:14.162Z,0.90
2022-12-28T00:44:45.010Z,0.77
2022-12-28T00:47:13.065Z,0.60
2022-12-28T00:49:41.172Z,0.55
2022-12-28T00:52:09.312Z,0.60
2022-12-28T00:54:37.433Z,0.70
2022-12-28T00:57:06.963Z,0.70
2022-12-28T00:59:35.046Z,0.65
2022-12-28T01:02:03.316Z,0.60
2022-12-28T01:04:31.510Z,0.63
2022-12-28T01:06:59.584Z,0.40
2022-12-28T01:09:27.700Z,0.50
2022-12-28T01:11:55.802Z,0.90
2022-12-28T01:14:25.594Z,1.13
2022-12-28T01:16:53.787Z,0.85
2022-12-28T01:19:23.670Z,0.80
2022-12-28T01:21:53.325Z,0.90
2022-12-28T01:24:21.561Z,0.55
2022-12-28T01:26:49.643Z,0.85
2022-12-28T01:29:17.858Z,0.60
2022-12-28T01:31:47.361Z,0.90
2022-12-28T01:34:15.519Z,0.60
2022-12-28T01:36:43.639Z,0.70
2022-12-28T01:39:11.946Z,1.00
2022-12-28T01:41:42.202Z,0.80
2022-12-28T01:44:38.313Z,0.47
2022-12-28T01:47:09.736Z,0.80
2022-12-28T01:49:42.093Z,0.85
2022-12-28T01:52:14.302Z,0.47
2022-12-28T01:54:46.546Z,0.65
2022-12-28T01:57:16.291Z,0.60
2022-12-28T01:59:50.813Z,0.60
2022-12-28T02:02:21.315Z,0.50
2022-12-28T02:04:50.509Z,0.70
2022-12-28T02:07:24.288Z,0.63
2022-12-28T02:10:41.008Z,0.50
2022-12-28T02:12:42.384Z,0.43
2022-12-28T02:15:11.316Z,0.35
2022-12-28T02:17:41.535Z,0.60
2022-12-28T02:20:10.494Z,0.57
2022-12-28T02:23:03.502Z,0.55
2022-12-28T02:26:10.080Z,0.60
2022-12-28T02:29:03.142Z,0.75
2022-12-28T02:31:37.976Z,0.70
2022-12-28T02:34:15.907Z,0.88
2022-12-28T02:36:50.780Z,0.70
2022-12-28T02:39:23.997Z,0.63
2022-12-28T02:41:54.173Z,0.98
2022-12-28T02:44:41.748Z,0.40
2022-12-28T02:47:31.770Z,0.70
2022-12-28T02:52:59.429Z,0.43
2022-12-28T02:56:00.601Z,0.47
2022-12-28T02:59:00.111Z,0.70
2022-12-28T03:01:45.783Z,0.80
2022-12-28T03:04:19.426Z,0.80
2022-12-28T03:07:16.458Z,0.60
2022-12-28T03:09:49.912Z,0.55
2022-12-28T03:12:23.626Z,0.60
2022-12-28T03:14:55.933Z,0.60
2022-12-28T03:17:45.150Z,0.60
2022-12-28T03:20:35.624Z,0.40
2022-12-28T03:23:24.032Z,0.65
2022-12-28T03:26:11.413Z,0.68
2022-12-28T03:29:00.524Z,0.70
2022-12-28T03:31:30.616Z,0.75
2022-12-28T03:34:07.678Z,0.70
2022-12-28T03:36:44.202Z,0.55
2022-12-28T03:39:17.864Z,0.60
2022-12-28T03:41:50.200Z,0.60
2022-12-28T03:44:22.961Z,0.65
2022-12-28T03:46:56.854Z,0.60
2022-12-28T03:49:28.401Z,0.68
2022-12-28T03:51:57.581Z,0.60
2022-12-28T03:54:26.337Z,1.00
2022-12-28T03:56:54.492Z,0.70
2022-12-28T03:59:22.716Z,0.73
2022-12-28T04:01:50.882Z,0.50
2022-12-28T04:04:19.101Z,0.50
2022-12-28T04:06:48.549Z,0.75
2022-12-28T04:09:16.730Z,0.60
2022-12-28T04:11:44.828Z,0.80
2022-12-28T04:14:12.905Z,0.40
2022-12-28T04:16:41.045Z,0.45
2022-12-28T04:19:10.438Z,0.77
2022-12-28T04:21:38.591Z,0.60
2022-12-28T04:24:08.381Z,0.50
2022-12-28T04:26:36.488Z,0.47
2022-12-28T04:29:05.004Z,0.30
2022-12-28T04:31:33.365Z,0.40
2022-12-28T04:34:01.945Z,0.38
2022-12-28T04:36:30.154Z,0.57
2022-12-28T04:38:59.721Z,0.50
2022-12-28T04:41:29.220Z,0.60
2022-12-28T04:43:57.800Z,0.50
2022-12-28T04:46:26.058Z,0.50
2022-12-28T04:48:54.763Z,0.45
2022-12-28T04:51:25.589Z,0.60
2022-12-28T04:53:54.199Z,0.40
2022-12-28T04:56:24.667Z,0.50
2022-12-28T04:58:57.738Z,0.63
2022-12-28T05:01:26.324Z,0.40
2022-12-28T05:03:59.158Z,0.40
2022-12-28T05:06:29.434Z,0.50
2022-12-28T05:08:58.618Z,0.60
2022-12-28T05:11:28.583Z,0.67
2022-12-28T05:16:28.412Z,0.40
2022-12-28T05:18:57.609Z,0.50
2022-12-28T05:21:27.391Z,0.40
2022-12-28T05:23:55.973Z,0.57
2022-12-28T05:26:26.183Z,0.50
2022-12-28T05:28:55.336Z,0.40
2022-12-28T05:31:25.796Z,0.30
2022-12-28T05:33:54.267Z,0.45
2022-12-28T05:36:24.613Z,0.68
2022-12-28T05:38:54.435Z,0.28
2022-12-28T05:41:26.070Z,0.30
2022-12-28T05:43:54.529Z,0.30
2022-12-28T05:46:25.876Z,0.50
2022-12-28T05:48:56.275Z,0.38
2022-12-28T05:51:26.986Z,0.45
2022-12-28T05:53:58.178Z,0.30
2022-12-28T05:56:31.281Z,0.40
2022-12-28T05:59:03.984Z,0.40
2022-12-28T06:01:40.441Z,0.50
2022-12-28T06:04:15.796Z,0.40
2022-12-28T06:06:45.469Z,0.30
2022-12-28T06:09:17.019Z,0.40
2022-12-28T06:11:47.117Z,0.60
2022-12-28T06:16:51.282Z,0.40
2022-12-28T06:19:22.301Z,0.30
2022-12-28T06:21:51.547Z,0.32
2022-12-28T06:24:21.539Z,0.30
2022-12-28T06:29:21.022Z,0.40
2022-12-28T06:31:57.252Z,0.35
2022-12-28T06:34:27.177Z,0.35
2022-12-28T06:37:00.380Z,0.40
2022-12-28T06:39:31.614Z,0.40
2022-12-28T06:42:02.524Z,0.20
2022-12-28T06:44:32.627Z,0.40
2022-12-28T06:47:05.006Z,0.30
2022-12-28T06:49:38.284Z,0.28
2022-12-28T06:52:11.826Z,0.28
2022-12-28T06:54:43.257Z,0.40
2022-12-28T06:57:15.970Z,0.20
2022-12-28T06:59:44.995Z,0.30
2022-12-28T07:02:16.591Z,0.32
2022-12-28T07:04:51.606Z,0.50
2022-12-28T07:07:23.618Z,0.30
2022-12-28T07:09:54.088Z,0.20
2022-12-28T07:12:30.441Z,0.32
2022-12-28T07:15:00.142Z,0.45
2022-12-28T07:17:31.356Z,0.32
2022-12-28T07:20:03.091Z,0.47
2022-12-28T07:22:33.616Z,0.30
2022-12-28T07:25:04.456Z,0.43
2022-12-28T07:27:34.367Z,0.30
2022-12-28T07:30:04.722Z,0.38
2022-12-28T07:32:40.052Z,0.50
2022-12-28T07:35:11.795Z,0.20
2022-12-28T07:37:41.152Z,0.38
2022-12-28T07:40:12.395Z,0.60
2022-12-28T07:42:43.151Z,0.30
2022-12-28T07:45:13.568Z,0.63
2022-12-28T07:47:47.583Z,0.35
2022-12-28T07:50:17.430Z,0.30
2022-12-28T07:52:47.563Z,0.35
2022-12-28T07:55:18.946Z,0.20
2022-12-28T07:57:51.730Z,0.40
2022-12-28T08:00:24.343Z,0.50
2022-12-28T08:02:59.292Z,0.40
2022-12-28T08:05:30.577Z,0.40
2022-12-28T08:08:04.050Z,0.50
2022-12-28T08:10:37.453Z,0.50
2022-12-28T08:13:09.729Z,0.20
2022-12-28T08:15:45.326Z,0.32
2022-12-28T08:18:18.850Z,0.30
2022-12-28T08:20:50.748Z,0.30
2022-12-28T08:23:23.071Z,0.30
2022-12-28T08:25:51.826Z,0.30
2022-12-28T08:28:19.928Z,0.32
2022-12-28T08:30:48.061Z,0.30
2022-12-28T08:33:17.512Z,0.30
2022-12-28T08:35:45.616Z,0.20
2022-12-28T08:38:13.699Z,0.38
2022-12-28T08:40:41.805Z,0.30
2022-12-28T08:43:09.869Z,0.40
2022-12-28T08:45:37.975Z,0.38
2022-12-28T08:48:06.930Z,0.30
2022-12-28T08:50:36.657Z,0.25
2022-12-28T08:53:04.737Z,0.30
2022-12-28T08:55:33.931Z,0.30
2022-12-28T08:58:02.023Z,0.30
2022-12-28T09:00:30.137Z,0.20
2022-12-28T09:03:00.217Z,0.20
2022-12-28T09:05:28.742Z,0.20
2022-12-28T09:07:59.862Z,0.20
2022-12-28T09:10:28.076Z,0.20
2022-12-28T09:12:56.200Z,0.20
2022-12-28T09:15:24.366Z,0.20
2022-12-28T09:17:52.444Z,0.20
2022-12-28T09:20:20.555Z,0.30
2022-12-28T09:22:48.699Z,0.20
2022-12-28T09:25:18.444Z,0.30
2022-12-28T09:27:57.510Z,0.20
2022-12-28T09:30:29.405Z,0.20
2022-12-28T09:33:18.222Z,0.28
2022-12-28T09:35:46.339Z,0.30
2022-12-28T09:38:14.450Z,0.20
2022-12-28T09:40:44.845Z,0.20
2022-12-28T09:43:13.682Z,0.20
2022-12-28T09:45:43.285Z,0.17
2022-12-28T09:48:15.801Z,0.20
2022-12-28T09:50:45.305Z,0.20
2022-12-28T09:53:22.799Z,0.38
2022-12-28T09:56:03.307Z,0.10
2022-12-28T09:58:33.136Z,0.20
2022-12-28T10:01:04.654Z,0.30
2022-12-28T10:03:39.423Z,0.20
2022-12-28T10:06:13.881Z,0.30
2022-12-28T10:08:46.048Z,0.10
2022-12-28T10:11:19.833Z,0.32
2022-12-28T10:13:55.060Z,0.20
2022-12-28T10:16:26.221Z,0.40
2022-12-28T10:18:54.741Z,0.20
2022-12-28T10:21:31.903Z,0.20
2022-12-28T10:24:30.167Z,0.20
2022-12-28T10:26:51.387Z,0.13
2022-12-28T10:29:21.672Z,0.20
2022-12-28T10:31:59.761Z,0.20
2022-12-28T10:34:33.542Z,0.20
2022-12-28T10:39:57.874Z,0.20
2022-12-28T10:42:30.884Z,0.20
2022-12-28T10:45:04.577Z,0.20
2022-12-28T10:47:36.416Z,0.20
2022-12-28T10:52:59.375Z,0.30
2022-12-28T10:55:30.734Z,0.28
2022-12-28T10:58:33.742Z,0.30
2022-12-28T11:01:08.318Z,0.40
2022-12-28T11:03:20.495Z,0.30
2022-12-28T11:03:38.732Z,0.32
2022-12-28T11:06:17.154Z,0.40
2022-12-28T11:09:00.725Z,0.32
2022-12-28T11:11:28.901Z,0.30
2022-12-28T11:14:01.604Z,0.40
2022-12-28T11:16:32.162Z,0.50
2022-12-28T11:19:00.330Z,0.38
2022-12-28T11:21:28.561Z,0.30
2022-12-28T11:23:56.838Z,0.20
2022-12-28T11:26:25.249Z,0.43
2022-12-28T11:28:54.066Z,0.20
2022-12-28T11:31:28.874Z,0.28
2022-12-28T11:33:59.760Z,0.30
2022-12-28T11:36:29.305Z,0.40
2022-12-28T11:38:58.381Z,0.32
2022-12-28T11:41:56.282Z,0.37
2022-12-28T11:44:52.299Z,0.40
2022-12-28T11:47:33.188Z,0.23
2022-12-28T11:50:20.170Z,0.30
2022-12-28T11:52:51.086Z,0.30
2022-12-28T11:55:46.556Z,0.30
2022-12-28T11:58:45.858Z,0.38
2022-12-28T12:01:46.700Z,0.37
2022-12-28T12:04:29.849Z,0.30
2022-12-28T12:07:45.804Z,0.30
2022-12-28T12:10:37.162Z,0.30
2022-12-28T12:13:40.591Z,0.35
2022-12-28T12:16:21.800Z,0.30
2022-12-28T12:18:52.465Z,0.20
2022-12-28T12:21:31.654Z,0.30
2022-12-28T12:24:06.962Z,0.67
2022-12-28T12:26:39.680Z,0.30
2022-12-28T12:29:15.824Z,0.22
2022-12-28T12:31:47.973Z,0.30
2022-12-28T12:34:21.387Z,0.20
2022-12-28T12:37:21.154Z,0.15
2022-12-28T12:40:19.980Z,0.20
2022-12-28T12:43:03.050Z,0.30
2022-12-28T12:45:41.241Z,0.20
2022-12-28T12:48:25.639Z,0.30
2022-12-28T12:51:05.132Z,0.10
2022-12-28T12:53:53.050Z,0.20
2022-12-28T12:56:30.990Z,0.30
2022-12-28T12:59:16.019Z,0.22
2022-12-28T13:01:50.094Z,0.20
2022-12-28T13:04:23.535Z,0.28
2022-12-28T13:06:57.528Z,0.20
2022-12-28T13:09:29.135Z,0.20
2022-12-28T13:11:58.998Z,0.30
2022-12-28T13:14:27.643Z,0.30
2022-12-28T13:16:57.465Z,0.30
2022-12-28T13:19:27.665Z,0.20
2022-12-28T13:21:59.581Z,0.20
2022-12-28T13:24:31.307Z,0.25
2022-12-28T13:27:01.007Z,0.40
2022-12-28T13:29:33.445Z,0.28
2022-12-28T13:32:01.894Z,0.40
2022-12-28T13:34:33.682Z,0.35
2022-12-28T13:37:03.946Z,0.32
2022-12-28T13:39:41.478Z,0.60
2022-12-28T13:42:16.029Z,0.60
2022-12-28T13:44:46.369Z,0.70
2022-12-28T13:47:20.865Z,0.52
2022-12-28T13:49:55.569Z,0.55
2022-12-28T13:52:27.626Z,0.80
2022-12-28T13:55:01.380Z,1.02
2022-12-28T13:57:46.854Z,0.63
2022-12-28T14:00:18.746Z,0.80
2022-12-28T14:02:48.491Z,0.60
2022-12-28T14:05:18.798Z,0.90
2022-12-28T14:07:48.148Z,1.15
2022-12-28T14:10:19.964Z,1.05
2022-12-28T14:12:49.494Z,0.93
2022-12-28T14:15:18.967Z,0.82
2022-12-28T14:17:49.276Z,0.43
2022-12-28T14:20:17.827Z,0.60
2022-12-28T14:22:46.272Z,0.52
2022-12-28T14:25:16.415Z,0.63
2022-12-28T14:27:57.218Z,0.82
2022-12-28T14:30:28.279Z,0.60
2022-12-28T14:32:56.942Z,0.60
2022-12-28T14:35:28.295Z,0.70
2022-12-28T14:38:00.354Z,0.77
2022-12-28T14:40:32.119Z,0.65
2022-12-28T14:43:11.328Z,0.60
2022-12-28T14:46:06.666Z,0.70
2022-12-28T14:48:36.332Z,0.52
2022-12-28T14:51:07.066Z,0.60
2022-12-28T14:53:35.357Z,0.60
2022-12-28T14:56:11.242Z,0.60
2022-12-28T14:58:50.823Z,0.70
2022-12-28T15:01:20.949Z,1.38
2022-12-28T15:03:51.654Z,0.55
2022-12-28T15:06:20.971Z,0.60
2022-12-28T15:08:50.313Z,0.50
2022-12-28T15:11:19.461Z,0.60
2022-12-28T15:13:49.194Z,0.50
2022-12-28T15:16:19.749Z,0.73
2022-12-28T15:18:48.074Z,0.30
2022-12-28T15:21:19.264Z,0.63
2022-12-28T15:23:50.360Z,0.50
2022-12-28T15:26:18.471Z,0.60
2022-12-28T15:28:48.002Z,0.60
2022-12-28T15:31:18.104Z,0.93
2022-12-28T15:33:46.748Z,0.32
2022-12-28T15:36:18.119Z,0.75
2022-12-28T15:38:46.671Z,0.70
2022-12-28T15:41:32.457Z,0.65
2022-12-28T15:44:02.667Z,0.40
2022-12-28T15:46:30.838Z,0.57
2022-12-28T15:48:59.066Z,0.50
2022-12-28T15:51:27.140Z,0.50
2022-12-28T15:53:55.335Z,0.50
2022-12-28T15:56:25.877Z,0.40
2022-12-28T15:58:54.921Z,0.80
2022-12-28T16:01:26.563Z,0.52
2022-12-28T16:03:57.711Z,0.63
2022-12-28T16:06:26.549Z,0.40
2022-12-28T16:08:55.898Z,0.50
2022-12-28T16:11:24.733Z,0.47
2022-12-28T16:13:54.485Z,0.68
2022-12-28T16:16:25.005Z,0.50
2022-12-28T16:18:57.603Z,0.60
2022-12-28T16:21:26.906Z,0.60
2022-12-28T16:23:55.069Z,0.40
2022-12-28T16:26:23.580Z,0.50
2022-12-28T16:28:51.944Z,0.47
2022-12-28T16:31:27.298Z,0.40
2022-12-28T16:33:56.003Z,0.50
2022-12-28T16:36:24.771Z,0.50
2022-12-28T16:38:53.064Z,0.50
2022-12-28T16:41:22.624Z,0.60
2022-12-28T16:43:50.948Z,0.52
2022-12-28T16:46:20.011Z,0.40
2022-12-28T16:48:49.488Z,0.50
2022-12-28T16:51:17.693Z,0.52
2022-12-28T16:53:45.779Z,0.98
2022-12-28T16:56:13.920Z,0.43
2022-12-28T16:58:45.053Z,0.40
2022-12-28T17:01:18.524Z,0.77
2022-12-28T17:03:46.947Z,0.50
2022-12-28T17:06:17.395Z,0.40
2022-12-28T17:08:46.492Z,0.50
2022-12-28T17:11:14.942Z,0.80
2022-12-28T17:13:43.014Z,1.13
2022-12-28T17:16:11.324Z,1.40
2022-12-28T17:18:40.243Z,0.93
2022-12-28T17:21:10.434Z,0.90
2022-12-28T17:23:40.736Z,1.08
2022-12-28T17:26:08.919Z,1.13
2022-12-28T17:28:37.432Z,0.80
2022-12-28T17:31:07.845Z,0.90
2022-12-28T17:33:39.832Z,0.80
2022-12-28T17:36:09.631Z,0.95
2022-12-28T17:38:38.643Z,0.67
2022-12-28T17:41:13.270Z,1.10
2022-12-28T17:43:44.343Z,0.77
2022-12-28T17:46:12.641Z,0.85
2022-12-28T17:48:41.699Z,0.60
2022-12-28T17:51:11.504Z,0.82
2022-12-28T17:56:10.475Z,1.05
2022-12-28T17:58:40.289Z,0.75
2022-12-28T18:01:08.766Z,0.68
2022-12-28T18:03:37.654Z,1.20
2022-12-28T18:06:06.208Z,1.23
2022-12-28T18:08:34.528Z,1.65
2022-12-28T18:11:02.986Z,1.58
2022-12-28T18:13:31.265Z,1.60
2022-12-28T18:16:00.843Z,1.65
2022-12-28T18:18:28.943Z,1.10
2022-12-28T18:20:57.961Z,1.25
2022-12-28T18:23:28.063Z,1.00
2022-12-28T18:26:02.455Z,1.90
2022-12-28T18:28:30.652Z,1.95
2022-12-28T18:31:02.475Z,1.95
2022-12-28T18:33:31.310Z,1.88
2022-12-28T18:35:59.854Z,1.45
2022-12-28T18:38:27.976Z,1.63
2022-12-28T18:40:58.708Z,1.48
2022-12-28T18:43:29.271Z,1.20
2022-12-28T18:45:59.471Z,1.40
2022-12-28T18:48:29.941Z,1.67
2022-12-28T18:51:00.557Z,1.30
2022-12-28T18:53:30.881Z,1.30
2022-12-28T18:55:59.710Z,0.95
2022-12-28T18:58:28.975Z,1.30
2022-12-28T19:01:32.961Z,1.13
2022-12-28T19:04:04.102Z,1.15
2022-12-28T19:06:32.815Z,1.02
2022-12-28T19:09:02.729Z,1.08
2022-12-28T19:11:31.897Z,1.02
2022-12-28T19:14:00.734Z,0.97
2022-12-28T19:16:31.932Z,1.13
2022-12-28T19:19:00.365Z,0.82
2022-12-28T19:21:31.963Z,0.88
2022-12-28T19:24:03.861Z,1.00
2022-12-28T19:26:33.607Z,1.00
2022-12-28T19:29:03.633Z,0.85
2022-12-28T19:31:32.980Z,1.17
2022-12-28T19:34:01.435Z,0.90
2022-12-28T19:36:31.411Z,0.65
2022-12-28T19:41:27.630Z,0.93
2022-12-28T19:43:56.276Z,1.13
2022-12-28T19:46:31.577Z,0.90
2022-12-28T19:49:00.950Z,1.05
2022-12-28T19:51:32.355Z,0.95
2022-12-28T19:54:01.564Z,0.82
2022-12-28T19:56:29.697Z,0.95
2022-12-28T19:59:05.009Z,0.90
2022-12-28T20:01:36.485Z,0.68
2022-12-28T20:04:12.436Z,0.77
2022-12-28T20:06:45.644Z,0.93
2022-12-28T20:09:15.242Z,0.93
2022-12-28T20:11:45.085Z,0.68
2022-12-28T20:14:17.186Z,0.90
2022-12-28T20:16:47.718Z,0.80
2022-12-28T20:19:16.021Z,0.63
2022-12-28T20:21:46.755Z,0.70
2022-12-28T20:24:16.350Z,1.35
2022-12-28T20:26:44.453Z,0.52
2022-12-28T20:29:16.420Z,0.80
2022-12-28T20:31:44.708Z,0.70
2022-12-28T20:34:13.131Z,0.68
2022-12-28T20:36:41.516Z,0.85
2022-12-28T20:39:17.324Z,0.70
2022-12-28T20:42:03.291Z,0.60
2022-12-28T20:44:34.153Z,0.70
2022-12-28T20:47:03.036Z,0.50
2022-12-28T20:49:32.938Z,0.63
2022-12-28T20:52:01.033Z,0.95
2022-12-28T20:54:30.529Z,0.63
2022-12-28T20:56:58.608Z,0.75
2022-12-28T20:59:27.367Z,0.68
2022-12-28T21:01:55.655Z,1.15
2022-12-28T21:04:26.016Z,0.50
2022-12-28T21:09:23.239Z,0.57
2022-12-28T21:11:52.771Z,0.70
2022-12-28T21:14:21.198Z,0.60
2022-12-28T21:16:49.516Z,0.60
2022-12-28T21:19:17.830Z,0.50
2022-12-28T21:21:47.419Z,0.50
2022-12-28T21:24:15.580Z,0.50
2022-12-28T21:26:43.696Z,0.60
2022-12-28T21:29:13.196Z,0.70
2022-12-28T21:31:41.329Z,0.50
2022-12-28T21:34:09.469Z,0.80
2022-12-28T21:36:37.575Z,0.60
2022-12-28T21:39:06.721Z,0.43
2022-12-28T21:41:49.970Z,0.40
2022-12-28T21:44:21.081Z,0.50
2022-12-28T21:46:50.910Z,0.57
2022-12-28T21:49:19.313Z,0.75
2022-12-28T21:51:47.799Z,0.70
2022-12-28T21:54:17.658Z,0.65
2022-12-28T21:56:47.621Z,0.50
2022-12-28T21:59:15.762Z,0.60
2022-12-28T22:02:02.710Z,0.50
2022-12-28T22:04:48.747Z,0.40
2022-12-28T22:07:18.479Z,0.50
2022-12-28T22:10:04.121Z,0.43
2022-12-28T22:12:35.619Z,0.63
2022-12-28T22:15:24.319Z,0.50
2022-12-28T22:17:56.235Z,0.50
2022-12-28T22:20:25.395Z,0.55
2022-12-28T22:22:56.502Z,0.30
2022-12-28T22:25:25.608Z,0.40
2022-12-28T22:27:53.766Z,0.37
2022-12-28T22:30:22.087Z,0.40
2022-12-28T22:32:50.274Z,0.63
2022-12-28T22:35:19.925Z,0.60
2022-12-28T22:37:48.003Z,0.63
2022-12-28T22:40:16.551Z,0.50
2022-12-28T22:42:47.001Z,0.40
2022-12-28T22:45:17.078Z,0.40
2022-12-28T22:50:16.265Z,0.40
2022-12-28T22:52:45.802Z,0.45
2022-12-28T22:55:14.367Z,0.52
2022-12-28T22:57:42.512Z,0.40
2022-12-28T23:00:13.833Z,0.60
2022-12-28T23:02:42.996Z,0.35
2022-12-28T23:05:12.365Z,0.57
2022-12-28T23:07:40.504Z,0.40
2022-12-28T23:10:11.370Z,0.40
2022-12-28T23:12:39.661Z,0.55
2022-12-28T23:15:18.643Z,0.50
2022-12-28T23:17:48.123Z,0.40
2022-12-28T23:20:33.998Z,0.30
2022-12-28T23:23:19.620Z,0.50
2022-12-28T23:26:07.013Z,0.38
2022-12-28T23:28:36.884Z,0.40
2022-12-28T23:31:05.396Z,0.40
2022-12-28T23:33:33.539Z,0.40
2022-12-28T23:36:03.756Z,0.40
2022-12-28T23:38:32.748Z,0.43
2022-12-28T23:41:24.246Z,0.30
2022-12-28T23:43:52.405Z,0.40
2022-12-28T23:46:20.852Z,0.38
2022-12-28T23:48:49.256Z,0.40
2022-12-28T23:51:18.060Z,0.38
2022-12-28T23:53:46.242Z,0.47
2022-12-28T23:56:15.947Z,0.40
2022-12-28T23:58:44.023Z,0.40
